Terminal Aerodrome Forecast
Issued by NWS La Crosse, WI

Current Version | Previous Version | Text Only | Print | Product List | Glossary On
Versions: 1 2 3 4 5 6 7 8 9 10 11 12 13 14 15 16 17 18 19 20 21
000
FTUS43 KARX 192104 AAA
TAFRST
TAF AMD
KRST 192104Z 1921/2018 17018G25KT P6SM BKN070
     FM200000 19012KT P6SM BKN100
     FM200600 21010KT P6SM VCSH BKN050
     FM200900 21006KT P6SM -SHRA BKN040
     FM201500 22008KT P6SM -SHRA BKN035=

USA.gov is the U.S. government's official web portal to all federal, state and local government web resources and services.